createdAt,value
2018-12-13T00:00:47.858Z,101749.26
2018-12-13T00:03:20.490Z,101740.49
2018-12-13T00:05:53.535Z,101748.44
2018-12-13T00:08:26.194Z,101739.98
2018-12-13T00:10:58.947Z,101736.02
2018-12-13T00:13:31.743Z,101735.39
2018-12-13T00:16:02.529Z,101740.88
2018-12-13T00:18:35.511Z,101743.22
2018-12-13T00:21:12.621Z,101741.63
2018-12-13T00:23:45.434Z,101742.79
2018-12-13T00:27:04.565Z,101739.75
2018-12-13T00:29:40.787Z,101739.39
2018-12-13T00:32:26.708Z,101731.92
2018-12-13T00:34:59.150Z,101731.27
2018-12-13T00:37:28.047Z,101733.99
2018-12-13T00:40:00.639Z,101733.38
2018-12-13T00:42:37.239Z,101727.98
2018-12-13T00:45:13.355Z,101730.33
2018-12-13T00:47:45.930Z,101722.84
2018-12-13T00:50:18.882Z,101725.86
2018-12-13T00:52:55.832Z,101722.26
2018-12-13T00:55:32.770Z,101721.23
2018-12-13T00:58:05.301Z,101724.24
2018-12-13T01:00:38.439Z,101720.13
2018-12-13T01:03:07.543Z,101717.63
2018-12-13T01:05:38.521Z,101718.37
2018-12-13T01:08:15.421Z,101715.36
2018-12-13T01:10:48.511Z,101711.94
2018-12-13T01:13:25.763Z,101706.32
2018-12-13T01:16:02.692Z,101707.34
2018-12-13T01:18:35.572Z,101708.47
2018-12-13T01:21:08.545Z,101707.77
2018-12-13T01:23:41.365Z,101703.66
2018-12-13T01:26:18.431Z,101702.13
2018-12-13T01:28:50.986Z,101694.03
2018-12-13T01:31:24.543Z,101693.47
2018-12-13T01:33:56.978Z,101706.14
2018-12-13T01:36:30.051Z,101698.18
2018-12-13T01:39:02.685Z,101698.70
2018-12-13T01:41:35.558Z,101701.88
2018-12-13T01:44:21.206Z,101707.09
2018-12-13T01:46:57.988Z,101699.67
2018-12-13T01:49:37.213Z,101700.04
2018-12-13T01:52:19.966Z,101706.16
2018-12-13T01:54:52.927Z,101699.90
2018-12-13T01:57:29.445Z,101691.52
2018-12-13T02:00:20.063Z,101696.38
2018-12-13T02:03:23.259Z,101697.84
2018-12-13T02:06:04.710Z,101694.16
2018-12-13T02:09:20.619Z,101688.74
2018-12-13T02:11:56.739Z,101682.73
2018-12-13T02:14:29.423Z,101687.23
2018-12-13T02:20:29.894Z,101690.05
2018-12-13T02:23:05.120Z,101686.67
2018-12-13T02:25:42.388Z,101678.27
2018-12-13T02:28:15.456Z,101673.86
2018-12-13T02:30:58.957Z,101681.41
2018-12-13T02:33:35.547Z,101678.13
2018-12-13T02:36:08.323Z,101677.37
2018-12-13T02:38:41.085Z,101676.63
2018-12-13T02:41:14.016Z,101676.59
2018-12-13T02:43:46.931Z,101674.80
2018-12-13T02:46:19.844Z,101677.44
2018-12-13T02:49:06.353Z,101672.55
2018-12-13T02:51:38.518Z,101668.23
2018-12-13T02:54:09.551Z,101674.68
2018-12-13T02:56:46.579Z,101667.73
2018-12-13T02:59:23.535Z,101662.47
2018-12-13T03:01:56.503Z,101660.37
2018-12-13T03:04:29.382Z,101660.66
2018-12-13T03:07:13.800Z,101658.27
2018-12-13T03:09:41.698Z,101658.88
2018-12-13T03:12:14.668Z,101661.00
2018-12-13T03:15:37.187Z,101656.87
2018-12-13T03:18:09.663Z,101662.81
2018-12-13T03:20:46.318Z,101665.51
2018-12-13T03:23:19.137Z,101659.69
2018-12-13T03:29:12.646Z,101659.89
2018-12-13T03:31:49.628Z,101650.23
2018-12-13T03:34:22.438Z,101649.02
2018-12-13T03:36:55.035Z,101648.91
2018-12-13T03:39:32.291Z,101644.59
2018-12-13T03:42:05.351Z,101643.66
2018-12-13T03:44:42.282Z,101639.38
2018-12-13T03:47:13.174Z,101636.52
2018-12-13T03:49:42.243Z,101642.39
2018-12-13T03:52:32.350Z,101629.59
2018-12-13T03:55:04.553Z,101626.50
2018-12-13T03:57:37.492Z,101620.50
2018-12-13T04:00:10.747Z,101625.78
2018-12-13T04:02:41.062Z,101628.53
2018-12-13T04:05:14.030Z,101627.08
2018-12-13T04:07:50.762Z,101636.55
2018-12-13T04:10:41.050Z,101622.75
2018-12-13T04:13:17.849Z,101618.80
2018-12-13T04:15:54.990Z,101621.68
2018-12-13T04:18:31.669Z,101621.70
2018-12-13T04:21:04.535Z,101620.38
2018-12-13T04:23:40.675Z,101617.15
2018-12-13T04:26:11.504Z,101616.44
2018-12-13T04:28:44.321Z,101624.19
2018-12-13T04:31:17.155Z,101617.00
2018-12-13T04:33:53.435Z,101619.48
2018-12-13T04:36:30.255Z,101612.91
2018-12-13T04:39:04.715Z,101610.20
2018-12-13T04:41:41.241Z,101612.91
2018-12-13T04:44:14.163Z,101610.50
2018-12-13T04:46:50.987Z,101611.69
2018-12-13T04:49:23.212Z,101613.02
2018-12-13T04:51:55.444Z,101608.11
2018-12-13T04:54:32.512Z,101601.06
2018-12-13T04:57:09.744Z,101610.03
2018-12-13T04:59:42.516Z,101613.13
2018-12-13T05:02:15.494Z,101610.27
2018-12-13T05:04:48.493Z,101605.35
2018-12-13T05:07:25.481Z,101608.24
2018-12-13T05:10:02.461Z,101603.43
2018-12-13T05:12:35.341Z,101603.54
2018-12-13T05:15:12.257Z,101601.52
2018-12-13T05:17:44.531Z,101603.80
2018-12-13T05:20:17.358Z,101594.83
2018-12-13T05:22:50.435Z,101594.33
2018-12-13T05:25:27.293Z,101591.06
2018-12-13T05:28:04.350Z,101594.52
2018-12-13T05:30:37.271Z,101592.20
2018-12-13T05:33:10.464Z,101590.05
2018-12-13T05:35:43.367Z,101588.80
2018-12-13T05:38:19.492Z,101592.59
2018-12-13T05:40:52.503Z,101589.17
2018-12-13T05:43:25.963Z,101586.55
2018-12-13T05:45:56.439Z,101581.67
2018-12-13T05:48:33.167Z,101578.10
2018-12-13T05:51:06.257Z,101582.44
2018-12-13T05:53:39.391Z,101579.65
2018-12-13T05:59:51.580Z,101587.28
2018-12-13T06:02:24.613Z,101590.78
2018-12-13T06:05:00.835Z,101596.24
2018-12-13T06:07:37.499Z,101589.40
2018-12-13T06:10:10.442Z,101593.02
2018-12-13T06:12:47.271Z,101589.74
2018-12-13T06:15:20.324Z,101593.99
2018-12-13T06:17:53.221Z,101595.08
2018-12-13T06:20:26.498Z,101596.08
2018-12-13T06:22:59.438Z,101594.64
2018-12-13T06:25:36.327Z,101596.67
2018-12-13T06:28:07.405Z,101597.73
2018-12-13T06:30:40.182Z,101603.59
2018-12-13T06:33:12.966Z,101604.03
2018-12-13T06:35:45.827Z,101604.51
2018-12-13T06:38:18.619Z,101608.77
2018-12-13T06:40:51.405Z,101608.67
2018-12-13T06:43:28.499Z,101613.71
2018-12-13T06:46:01.367Z,101610.89
2018-12-13T06:48:32.439Z,101619.09
2018-12-13T06:51:05.439Z,101611.63
2018-12-13T06:53:38.462Z,101612.14
2018-12-13T06:56:11.575Z,101611.34
2018-12-13T06:58:44.355Z,101608.08
2018-12-13T07:01:17.579Z,101605.50
2018-12-13T07:03:48.558Z,101610.16
2018-12-13T07:06:21.669Z,101616.77
2018-12-13T07:08:54.515Z,101609.13
2018-12-13T07:11:27.583Z,101619.07
2018-12-13T07:13:58.583Z,101617.11
2018-12-13T07:16:35.568Z,101610.95
2018-12-13T07:19:08.269Z,101618.52
2018-12-13T07:21:45.251Z,101620.28
2018-12-13T07:24:18.022Z,101631.19
2018-12-13T07:26:51.182Z,101628.16
2018-12-13T07:29:24.055Z,101622.73
2018-12-13T07:31:56.218Z,101625.30
2018-12-13T07:34:32.444Z,101630.19
2018-12-13T07:37:05.515Z,101631.04
2018-12-13T07:39:38.139Z,101630.34
2018-12-13T07:42:14.860Z,101632.35
2018-12-13T07:44:47.917Z,101630.07
2018-12-13T07:47:20.851Z,101630.95
2018-12-13T07:49:57.074Z,101637.37
2018-12-13T07:52:30.207Z,101636.16
2018-12-13T07:55:02.983Z,101629.27
2018-12-13T07:57:36.055Z,101625.47
2018-12-13T08:00:13.207Z,101626.31
2018-12-13T08:02:45.932Z,101621.73
2018-12-13T08:05:36.129Z,101622.83
2018-12-13T08:08:12.451Z,101621.17
2018-12-13T08:10:50.137Z,101622.04
2018-12-13T08:13:49.632Z,101623.24
2018-12-13T08:16:23.599Z,101624.08
2018-12-13T08:18:56.112Z,101615.23
2018-12-13T08:21:29.421Z,101620.63
2018-12-13T08:24:02.519Z,101620.39
2018-12-13T08:26:34.858Z,101619.42
2018-12-13T08:29:07.765Z,101611.04
2018-12-13T08:31:40.606Z,101616.87
2018-12-13T08:34:11.939Z,101615.08
2018-12-13T08:36:44.862Z,101610.28
2018-12-13T08:39:17.896Z,101614.70
2018-12-13T08:41:50.796Z,101613.23
2018-12-13T08:44:23.900Z,101612.13
2018-12-13T08:46:56.815Z,101606.95
2018-12-13T08:49:31.869Z,101611.14
2018-12-13T08:52:05.047Z,101609.34
2018-12-13T08:54:38.059Z,101606.01
2018-12-13T08:57:11.187Z,101613.55
2018-12-13T08:59:43.523Z,101613.18
2018-12-13T09:02:16.651Z,101618.21
2018-12-13T09:04:53.615Z,101617.97
2018-12-13T09:07:26.573Z,101616.02
2018-12-13T09:32:53.647Z,101618.38
2018-12-13T09:35:26.342Z,101621.90
2018-12-13T09:38:02.803Z,101615.56
2018-12-13T09:40:39.330Z,101609.34
2018-12-13T09:43:11.820Z,101617.23
2018-12-13T09:45:44.431Z,101623.39
2018-12-13T09:48:17.510Z,101618.44
2018-12-13T09:50:50.927Z,101619.98
2018-12-13T09:53:27.792Z,101613.56
2018-12-13T09:56:01.042Z,101610.82
2018-12-13T09:58:33.906Z,101614.38
2018-12-13T10:01:06.999Z,101614.64
2018-12-13T10:03:43.824Z,101617.50
2018-12-13T10:06:16.917Z,101611.99
2018-12-13T10:08:49.178Z,101610.81
2018-12-13T10:11:21.948Z,101597.78
2018-12-13T10:13:54.943Z,101604.25
2018-12-13T10:16:27.523Z,101598.67
2018-12-13T10:19:05.779Z,101602.63
2018-12-13T10:21:38.516Z,101606.13
2018-12-13T10:24:10.784Z,101605.37
2018-12-13T10:26:43.856Z,101600.19
2018-12-13T10:29:16.639Z,101600.20
2018-12-13T10:31:49.677Z,101596.49
2018-12-13T10:36:53.834Z,101598.17
2018-12-13T10:39:27.654Z,101596.02
2018-12-13T10:42:00.504Z,101597.97
2018-12-13T10:44:36.599Z,101600.36
2018-12-13T10:47:12.839Z,101585.48
2018-12-13T10:49:46.058Z,101587.42
2018-12-13T10:52:20.126Z,101585.00
2018-12-13T10:54:53.139Z,101580.27
2018-12-13T10:57:26.296Z,101573.83
2018-12-13T11:00:00.305Z,101572.77
2018-12-13T11:02:45.550Z,101573.52
2018-12-13T11:05:18.419Z,101572.41
2018-12-13T11:07:55.783Z,101565.37
2018-12-13T11:10:28.731Z,101561.88
2018-12-13T11:13:05.316Z,101555.05
2018-12-13T11:15:37.602Z,101552.71
2018-12-13T11:18:13.082Z,101550.25
2018-12-13T11:20:47.155Z,101545.53
2018-12-13T11:23:20.049Z,101550.39
2018-12-13T11:25:57.055Z,101553.62
2018-12-13T11:28:48.564Z,101552.91
2018-12-13T11:31:25.043Z,101549.55
2018-12-13T11:34:02.354Z,101550.97
2018-12-13T11:36:34.875Z,101549.19
2018-12-13T11:39:07.735Z,101545.59
2018-12-13T11:51:45.234Z,101524.50
2018-12-13T11:54:40.100Z,101511.25
2018-12-13T11:57:12.643Z,101515.70
2018-12-13T11:59:46.277Z,101514.03
2018-12-13T12:02:24.033Z,101510.00
2018-12-13T12:04:57.937Z,101502.78
2018-12-13T12:07:30.924Z,101501.71
2018-12-13T12:10:01.882Z,101492.02
2018-12-13T12:12:34.967Z,101493.01
2018-12-13T12:15:08.390Z,101491.69
2018-12-13T12:17:41.116Z,101482.22
2018-12-13T12:20:13.442Z,101479.62
2018-12-13T12:22:46.687Z,101471.06
2018-12-13T12:25:19.798Z,101478.58
2018-12-13T12:27:52.464Z,101479.02
2018-12-13T12:30:25.621Z,101471.95
2018-12-13T12:32:58.380Z,101470.27
2018-12-13T12:35:31.468Z,101475.89
2018-12-13T12:38:03.651Z,101470.10
2018-12-13T12:40:37.119Z,101469.24
2018-12-13T12:43:13.987Z,101462.89
2018-12-13T12:45:46.915Z,101469.71
2018-12-13T12:48:20.003Z,101465.06
2018-12-13T12:50:52.360Z,101467.84
2018-12-13T13:03:32.310Z,101459.54
2018-12-13T13:06:05.220Z,101463.51
2018-12-13T13:08:42.425Z,101469.66
2018-12-13T13:11:15.676Z,101463.73
2018-12-13T13:13:48.410Z,101457.09
2018-12-13T13:16:21.567Z,101462.98
2018-12-13T13:18:53.878Z,101462.94
2018-12-13T13:21:28.779Z,101462.30
2018-12-13T13:24:01.424Z,101459.14
2018-12-13T13:26:38.519Z,101457.26
2018-12-13T13:29:11.795Z,101457.66
2018-12-13T13:31:45.511Z,101456.97
2018-12-13T13:34:18.722Z,101453.30
2018-12-13T13:36:51.668Z,101449.30
2018-12-13T13:39:23.883Z,101448.27
2018-12-13T13:41:58.232Z,101447.70
2018-12-13T13:44:37.554Z,101454.06
2018-12-13T13:47:10.204Z,101455.83
2018-12-13T13:49:42.422Z,101459.18
2018-12-13T13:52:15.689Z,101452.23
2018-12-13T13:54:48.806Z,101452.17
2018-12-13T13:57:21.850Z,101459.27
2018-12-13T13:59:54.687Z,101451.77
2018-12-13T14:02:27.642Z,101462.15
2018-12-13T14:05:00.616Z,101460.08
2018-12-13T14:07:32.779Z,101457.43
2018-12-13T14:10:05.354Z,101457.43
2018-12-13T14:12:39.483Z,101450.77
2018-12-13T14:15:12.591Z,101453.32
2018-12-13T14:17:45.608Z,101456.22
2018-12-13T14:20:17.886Z,101460.20
2018-12-13T14:22:51.183Z,101458.13
2018-12-13T14:25:24.039Z,101461.06
2018-12-13T14:27:57.067Z,101454.59
2018-12-13T14:30:29.286Z,101455.92
2018-12-13T14:33:01.579Z,101447.67
2018-12-13T14:35:34.780Z,101450.80
2018-12-13T14:38:07.711Z,101458.03
2018-12-13T14:40:40.726Z,101445.79
2018-12-13T14:43:13.800Z,101447.44
2018-12-13T14:45:46.903Z,101447.63
2018-12-13T14:48:23.886Z,101452.66
2018-12-13T14:51:00.289Z,101446.84
2018-12-13T14:53:32.734Z,101445.11
2018-12-13T14:56:05.752Z,101441.43
2018-12-13T14:58:38.636Z,101437.45
2018-12-13T15:01:12.039Z,101444.36
2018-12-13T15:03:44.968Z,101453.18
2018-12-13T15:13:52.055Z,101452.66
2018-12-13T15:16:24.851Z,101456.22
2018-12-13T15:19:01.078Z,101452.52
2018-12-13T15:21:39.270Z,101451.00
2018-12-13T15:24:12.283Z,101464.23
2018-12-13T15:26:45.308Z,101459.22
2018-12-13T15:29:18.007Z,101461.94
2018-12-13T15:31:59.310Z,101461.94
2018-12-13T15:34:30.507Z,101458.38
2018-12-13T15:37:04.666Z,101453.80
2018-12-13T15:39:37.540Z,101453.72
2018-12-13T15:42:10.594Z,101453.59
2018-12-13T15:44:46.423Z,101460.00
2018-12-13T15:47:21.809Z,101464.94
2018-12-13T15:49:55.200Z,101460.97
2018-12-13T15:52:29.507Z,101464.25
2018-12-13T15:55:00.720Z,101467.17
2018-12-13T15:57:37.744Z,101464.17
2018-12-13T16:00:11.699Z,101467.09
2018-12-13T16:02:51.898Z,101462.16
2018-12-13T16:05:24.841Z,101458.88
2018-12-13T16:08:02.460Z,101462.16
2018-12-13T16:10:37.583Z,101466.67
2018-12-13T16:13:10.847Z,101464.09
2018-12-13T16:15:52.519Z,101467.95
2018-12-13T16:18:25.119Z,101458.95
2018-12-13T16:20:58.039Z,101452.75
2018-12-13T16:23:30.979Z,101448.62
2018-12-13T16:26:07.899Z,101451.50
2018-12-13T16:28:40.848Z,101454.78
2018-12-13T16:31:17.621Z,101456.86
2018-12-13T16:33:50.703Z,101454.15
2018-12-13T16:36:23.442Z,101458.33
2018-12-13T16:38:56.479Z,101461.80
2018-12-13T16:41:29.759Z,101462.57
2018-12-13T16:44:02.774Z,101464.17
2018-12-13T16:46:39.876Z,101455.88
2018-12-13T16:49:10.703Z,101461.88
2018-12-13T16:51:44.375Z,101461.52
2018-12-13T16:54:21.173Z,101456.11
2018-12-13T16:56:54.615Z,101459.79
2018-12-13T16:59:25.477Z,101452.33
2018-12-13T17:02:02.355Z,101456.39
2018-12-13T17:04:38.982Z,101455.27
2018-12-13T17:07:11.994Z,101450.61
2018-12-13T17:09:45.075Z,101453.67
2018-12-13T17:12:18.057Z,101448.30
2018-12-13T17:14:51.525Z,101446.92
2018-12-13T17:17:24.467Z,101446.56
2018-12-13T17:20:01.803Z,101449.56
2018-12-13T17:22:36.344Z,101449.09
2018-12-13T17:25:13.219Z,101441.55
2018-12-13T17:27:50.159Z,101453.13
2018-12-13T17:30:23.204Z,101438.70
2018-12-13T17:32:55.162Z,101446.78
2018-12-13T17:35:28.462Z,101446.15
2018-12-13T17:38:05.350Z,101446.36
2018-12-13T17:40:38.403Z,101453.45
2018-12-13T17:43:11.343Z,101450.48
2018-12-13T17:45:48.173Z,101446.72
2018-12-13T17:48:25.051Z,101452.97
2018-12-13T17:50:58.702Z,101456.41
2018-12-13T17:53:37.124Z,101456.41
2018-12-13T17:56:10.112Z,101458.69
2018-12-13T17:58:43.195Z,101455.28
2018-12-13T18:01:16.427Z,101453.81
2018-12-13T18:03:48.588Z,101460.92
2018-12-13T18:06:21.803Z,101457.50
2018-12-13T18:08:54.719Z,101453.89
2018-12-13T18:11:31.854Z,101456.06
2018-12-13T18:14:08.682Z,101451.52
2018-12-13T18:16:43.502Z,101444.64
2018-12-13T18:19:16.731Z,101449.38
2018-12-13T18:21:49.802Z,101450.77
2018-12-13T18:24:24.163Z,101449.52
2018-12-13T18:27:01.868Z,101445.06
2018-12-13T18:29:38.735Z,101452.84
2018-12-13T18:32:11.846Z,101459.73
2018-12-13T18:34:49.304Z,101452.84
2018-12-13T18:37:19.390Z,101441.85
2018-12-13T18:39:48.966Z,101436.56
2018-12-13T18:42:18.482Z,101432.75
2018-12-13T18:44:48.884Z,101430.86
2018-12-13T18:47:18.403Z,101424.05
2018-12-13T18:49:48.036Z,101430.92
2018-12-13T18:52:17.543Z,101444.66
2018-12-13T18:54:47.153Z,101452.70
2018-12-13T18:57:17.119Z,101452.28
2018-12-13T18:59:46.591Z,101458.20
2018-12-13T19:02:16.107Z,101461.12
2018-12-13T19:04:45.578Z,101465.39
2018-12-13T19:07:15.200Z,101457.30
2018-12-13T19:09:44.710Z,101453.82
2018-12-13T19:12:14.314Z,101449.23
2018-12-13T19:14:44.011Z,101450.97
2018-12-13T19:17:13.579Z,101455.77
2018-12-13T19:19:43.240Z,101459.68
2018-12-13T19:22:12.737Z,101453.77
2018-12-13T19:24:42.427Z,101453.82
2018-12-13T19:27:11.899Z,101456.95
2018-12-13T19:29:41.897Z,101452.17
2018-12-13T19:32:11.477Z,101459.38
2018-12-13T19:34:41.161Z,101458.79
2018-12-13T19:37:10.699Z,101464.57
2018-12-13T19:39:40.403Z,101465.47
2018-12-13T19:42:09.991Z,101466.44
2018-12-13T19:44:39.701Z,101468.05
2018-12-13T19:47:09.286Z,101466.14
2018-12-13T19:49:38.999Z,101469.80
2018-12-13T19:52:08.624Z,101475.45
2018-12-13T19:54:38.271Z,101469.36
2018-12-13T19:57:07.713Z,101470.68
2018-12-13T19:59:38.726Z,101478.31
2018-12-13T20:02:08.463Z,101471.71
2018-12-13T20:04:38.147Z,101477.53
2018-12-13T20:07:07.691Z,101479.36
2018-12-13T20:09:38.627Z,101481.22
2018-12-13T20:12:08.226Z,101484.30
2018-12-13T20:14:37.838Z,101487.55
2018-12-13T20:17:07.977Z,101494.44
2018-12-13T20:19:37.638Z,101493.71
2018-12-13T20:22:07.139Z,101495.31
2018-12-13T20:24:37.347Z,101489.62
2018-12-13T20:27:06.941Z,101492.86
2018-12-13T20:29:36.843Z,101497.03
2018-12-13T20:32:06.401Z,101495.30
2018-12-13T20:34:35.932Z,101492.95
2018-12-13T20:37:05.522Z,101494.92
2018-12-13T20:39:35.429Z,101491.05
2018-12-13T20:42:04.943Z,101490.55
2018-12-13T20:44:34.392Z,101486.95
2018-12-13T20:47:03.935Z,101494.94
2018-12-13T20:49:34.413Z,101496.73
2018-12-13T20:52:03.967Z,101490.45
2018-12-13T20:54:33.582Z,101499.86
2018-12-13T20:57:03.223Z,101495.41
2018-12-13T20:59:32.686Z,101502.83
2018-12-13T21:02:02.318Z,101502.28
2018-12-13T21:04:31.829Z,101502.61
2018-12-13T21:07:06.571Z,101502.77
2018-12-13T21:09:36.015Z,101504.45
2018-12-13T21:12:05.691Z,101508.05
2018-12-13T21:14:35.293Z,101512.59
2018-12-13T21:17:04.823Z,101511.59
2018-12-13T21:19:34.395Z,101511.59
2018-12-13T21:22:03.984Z,101515.71
2018-12-13T21:24:33.603Z,101507.78
2018-12-13T21:27:03.633Z,101511.32
2018-12-13T21:29:33.193Z,101505.98
2018-12-13T21:32:02.722Z,101505.55
2018-12-13T21:34:32.137Z,101506.73
2018-12-13T21:37:02.767Z,101504.07
2018-12-13T21:39:32.259Z,101504.59
2018-12-13T21:42:01.955Z,101502.58
2018-12-13T21:44:31.415Z,101500.97
2018-12-13T21:47:00.934Z,101498.02
2018-12-13T21:49:30.347Z,101499.27
2018-12-13T21:51:59.831Z,101497.14
2018-12-13T21:54:29.299Z,101490.55
2018-12-13T21:56:58.855Z,101492.53
2018-12-13T21:59:28.195Z,101493.45
2018-12-13T22:01:57.533Z,101487.77
2018-12-13T22:04:26.727Z,101494.33
2018-12-13T22:06:55.947Z,101493.36
2018-12-13T22:09:25.191Z,101493.95
2018-12-13T22:11:54.352Z,101501.10
2018-12-13T22:14:24.643Z,101494.47
2018-12-13T22:16:53.712Z,101494.06
2018-12-13T22:19:22.811Z,101493.25
2018-12-13T22:21:51.947Z,101501.22
2018-12-13T22:24:21.335Z,101506.60
2018-12-13T22:26:50.498Z,101508.29
2018-12-13T22:29:19.633Z,101502.19
2018-12-13T22:31:48.712Z,101508.21
2018-12-13T22:34:17.915Z,101506.80
2018-12-13T22:36:47.193Z,101504.03
2018-12-13T22:39:16.615Z,101501.02
2018-12-13T22:41:45.827Z,101503.66
2018-12-13T22:44:15.106Z,101505.25
2018-12-13T22:46:44.347Z,101511.70
2018-12-13T22:49:13.592Z,101506.05
2018-12-13T22:51:42.648Z,101515.52
2018-12-13T22:54:11.815Z,101508.59
2018-12-13T22:56:40.934Z,101508.13
2018-12-13T22:59:10.151Z,101510.99
2018-12-13T23:01:39.333Z,101510.89
2018-12-13T23:04:08.327Z,101515.41
2018-12-13T23:06:37.582Z,101516.45
2018-12-13T23:09:08.115Z,101522.89
2018-12-13T23:11:37.223Z,101526.34
2018-12-13T23:14:06.534Z,101528.83
2018-12-13T23:16:35.699Z,101521.28
2018-12-13T23:19:04.731Z,101528.65
2018-12-13T23:21:34.059Z,101516.75
2018-12-13T23:24:03.241Z,101527.36
2018-12-13T23:26:32.340Z,101522.07
2018-12-13T23:29:01.459Z,101517.83
2018-12-13T23:31:30.461Z,101518.81
2018-12-13T23:33:59.664Z,101511.30
2018-12-13T23:36:28.776Z,101513.81
2018-12-13T23:38:57.767Z,101512.74
2018-12-13T23:41:26.742Z,101514.20
2018-12-13T23:43:55.826Z,101509.65
2018-12-13T23:46:24.913Z,101514.75
2018-12-13T23:48:53.996Z,101516.23
2018-12-13T23:51:23.029Z,101516.88
2018-12-13T23:53:52.278Z,101508.66
2018-12-13T23:56:21.522Z,101511.78
2018-12-13T23:58:50.919Z,101514.33
